RYR77SB GCTS-EGNM
Flight info
| Callsign | RYR77SB |
|---|---|
| Flight time | N/A |
| Altitude | 36000 |
| Route | BIMBO2H BIMBO DCT LIDRO DCT MANOX/M080F360 T13 OMOKO DCT GUNSO/N0465F360 DCT TISMO DCT CML DCT KOMER DCT KLY DCT BOFUM Q37 MALUD L975 WAL DCT POL DCT |
| Aircraft | B38M/M-SDE1FGHILORVWXY/HB1 |
Departure
| Time | N/A |
|---|---|
| Airport | Tenerife Sur Airport (GCTS) |
Arrival
| Time | 2026-04-30 20:02 |
|---|---|
| Airport | Leeds Bradford Airport (EGNM) |
| Time | Latitude | Longitude | Altitude | Speed | Heading |
|---|---|---|---|---|---|
| 2026-04-30 15:14 | 28.04737 | -16.57628 | 211 ft | 0 kts | 341° |
| 2026-04-30 17:39 | 40.48724 | -15.16832 | 36050 ft | 508 kts | 356° |
| 2026-04-30 17:42 | 40.84199 | -15.14874 | 36052 ft | 512 kts | 356° |
| 2026-04-30 17:43 | 41.01985 | -15.13885 | 36057 ft | 513 kts | 358° |
| 2026-04-30 17:44 | 41.23372 | -15.12689 | 36056 ft | 513 kts | 359° |
| 2026-04-30 17:47 | 41.55390 | -15.10881 | 36055 ft | 514 kts | 360° |
| 2026-04-30 17:48 | 41.80406 | -15.09457 | 36024 ft | 507 kts | 0° |
| 2026-04-30 17:49 | 41.93314 | -15.08719 | 36042 ft | 438 kts | 0° |
| 2026-04-30 17:50 | 42.03814 | -15.06392 | 36058 ft | 405 kts | 21° |
| 2026-04-30 17:51 | 42.11420 | -15.02293 | 36057 ft | 383 kts | 20° |
| 2026-04-30 17:52 | 42.19069 | -14.98254 | 36087 ft | 404 kts | 20° |
| 2026-04-30 17:53 | 42.32752 | -14.90984 | 36091 ft | 443 kts | 21° |
| 2026-04-30 17:54 | 42.44645 | -14.84637 | 36092 ft | 476 kts | 21° |
| 2026-04-30 17:55 | 42.57357 | -14.77824 | 36089 ft | 509 kts | 22° |
| 2026-04-30 17:56 | 42.70758 | -14.70609 | 36088 ft | 520 kts | 22° |
| 2026-04-30 17:58 | 42.90888 | -14.59706 | 36088 ft | 520 kts | 22° |
| 2026-04-30 18:00 | 43.17909 | -14.44950 | 36084 ft | 521 kts | 22° |
| 2026-04-30 18:01 | 43.34712 | -14.35702 | 36084 ft | 519 kts | 22° |
| 2026-04-30 18:02 | 43.54778 | -14.24586 | 36083 ft | 517 kts | 22° |
| 2026-04-30 18:04 | 43.74812 | -14.13408 | 36081 ft | 518 kts | 21° |
| 2026-04-30 18:06 | 44.01378 | -13.98460 | 36124 ft | 515 kts | 21° |
| 2026-04-30 18:08 | 44.24538 | -13.85311 | 36110 ft | 512 kts | 23° |
| 2026-04-30 18:09 | 44.37773 | -13.77743 | 35992 ft | 516 kts | 22° |
| 2026-04-30 18:10 | 44.51039 | -13.70124 | 36178 ft | 513 kts | 21° |
| 2026-04-30 18:11 | 44.74225 | -13.56714 | 36083 ft | 517 kts | 21° |
| 2026-04-30 18:13 | 44.90891 | -13.47003 | 35992 ft | 520 kts | 22° |
| 2026-04-30 18:14 | 45.07902 | -13.38990 | 36124 ft | 519 kts | 11° |
| 2026-04-30 18:15 | 45.28906 | -13.31693 | 36059 ft | 519 kts | 11° |
| 2026-04-30 18:16 | 45.42926 | -13.26827 | 36084 ft | 519 kts | 9° |
| 2026-04-30 18:17 | 45.49950 | -13.24385 | 35971 ft | 522 kts | 12° |
| 2026-04-30 18:18 | 45.60560 | -13.20667 | 36061 ft | 522 kts | 11° |
| 2026-04-30 18:18 | 45.67556 | -13.18215 | 36069 ft | 521 kts | 12° |
| 2026-04-30 18:19 | 45.74769 | -13.15669 | 35751 ft | 526 kts | 11° |
| 2026-04-30 18:19 | 45.78315 | -13.14427 | 35899 ft | 524 kts | 11° |
| 2026-04-30 18:19 | 45.81858 | -13.13177 | 36039 ft | 524 kts | 11° |
| 2026-04-30 18:20 | 45.88915 | -13.10673 | 36031 ft | 527 kts | 11° |
| 2026-04-30 18:20 | 45.96053 | -13.08145 | 36031 ft | 528 kts | 11° |
| 2026-04-30 18:21 | 46.03190 | -13.05603 | 36031 ft | 528 kts | 11° |
| 2026-04-30 18:21 | 46.10321 | -13.03061 | 36026 ft | 528 kts | 11° |
| 2026-04-30 18:22 | 46.17449 | -13.00511 | 36026 ft | 528 kts | 11° |
| 2026-04-30 18:22 | 46.28158 | -12.96669 | 36028 ft | 529 kts | 11° |
| 2026-04-30 18:23 | 46.35309 | -12.94094 | 36023 ft | 529 kts | 11° |
| 2026-04-30 18:23 | 46.42462 | -12.91513 | 36016 ft | 530 kts | 11° |
| 2026-04-30 18:24 | 46.53193 | -12.87625 | 36021 ft | 532 kts | 11° |
| 2026-04-30 18:25 | 46.60382 | -12.85012 | 36023 ft | 532 kts | 11° |
| 2026-04-30 18:25 | 46.71151 | -12.81084 | 36015 ft | 530 kts | 11° |
| 2026-04-30 18:26 | 46.81774 | -12.77195 | 36014 ft | 530 kts | 11° |
| 2026-04-30 18:27 | 46.92500 | -12.73250 | 36011 ft | 527 kts | 11° |
| 2026-04-30 18:28 | 47.03177 | -12.69309 | 36009 ft | 527 kts | 11° |
| 2026-04-30 18:28 | 47.13857 | -12.65350 | 36005 ft | 526 kts | 11° |
| 2026-04-30 18:29 | 47.28031 | -12.60069 | 36004 ft | 527 kts | 11° |
| 2026-04-30 18:30 | 47.42199 | -12.54763 | 35990 ft | 529 kts | 12° |
| 2026-04-30 18:31 | 47.52907 | -12.50730 | 35989 ft | 529 kts | 12° |
| 2026-04-30 18:32 | 47.63576 | -12.46698 | 35994 ft | 526 kts | 12° |
| 2026-04-30 18:33 | 47.74228 | -12.42655 | 35990 ft | 526 kts | 12° |
| 2026-04-30 18:33 | 47.84835 | -12.38610 | 36000 ft | 523 kts | 13° |
| 2026-04-30 18:34 | 47.95409 | -12.34563 | 35981 ft | 530 kts | 13° |
| 2026-04-30 18:35 | 48.02546 | -12.31820 | 35996 ft | 527 kts | 13° |
| 2026-04-30 18:35 | 48.09651 | -12.29084 | 35995 ft | 527 kts | 13° |
| 2026-04-30 18:36 | 48.20310 | -12.24962 | 35987 ft | 527 kts | 13° |
| 2026-04-30 18:37 | 48.30920 | -12.20842 | 35987 ft | 527 kts | 13° |
| 2026-04-30 18:37 | 48.38017 | -12.18076 | 35988 ft | 527 kts | 13° |
| 2026-04-30 18:38 | 48.45111 | -12.15304 | 35985 ft | 527 kts | 13° |
| 2026-04-30 18:38 | 48.52250 | -12.12505 | 35979 ft | 530 kts | 14° |
| 2026-04-30 18:39 | 48.58191 | -12.10170 | 35982 ft | 530 kts | 14° |
| 2026-04-30 18:39 | 48.65340 | -12.07353 | 35979 ft | 530 kts | 14° |
| 2026-04-30 18:40 | 48.72461 | -12.04539 | 35984 ft | 527 kts | 14° |
| 2026-04-30 18:40 | 48.79560 | -12.01725 | 35986 ft | 527 kts | 14° |
| 2026-04-30 18:41 | 48.86307 | -11.97551 | 36012 ft | 527 kts | 36° |
| 2026-04-30 18:41 | 48.92175 | -11.90979 | 35963 ft | 526 kts | 37° |
| 2026-04-30 18:42 | 48.98204 | -11.84564 | 35987 ft | 529 kts | 36° |
| 2026-04-30 18:42 | 49.07166 | -11.74726 | 35984 ft | 529 kts | 37° |
| 2026-04-30 18:45 | 49.39700 | -11.37925 | 35989 ft | 530 kts | 38° |
| 2026-04-30 18:46 | 49.45600 | -11.31190 | 35998 ft | 526 kts | 38° |
| 2026-04-30 18:46 | 49.51439 | -11.24501 | 35968 ft | 528 kts | 38° |
| 2026-04-30 18:47 | 49.57340 | -11.17721 | 35988 ft | 530 kts | 38° |
| 2026-04-30 18:47 | 49.63243 | -11.10918 | 35980 ft | 529 kts | 39° |
| 2026-04-30 18:48 | 49.69133 | -11.04109 | 35993 ft | 527 kts | 39° |
| 2026-04-30 18:48 | 49.75001 | -10.97303 | 35988 ft | 526 kts | 39° |
| 2026-04-30 18:49 | 49.80830 | -10.90522 | 35961 ft | 528 kts | 39° |
| 2026-04-30 18:49 | 49.86741 | -10.83624 | 35985 ft | 532 kts | 39° |
| 2026-04-30 18:50 | 49.92656 | -10.76702 | 36000 ft | 530 kts | 40° |
| 2026-04-30 18:50 | 49.98528 | -10.69805 | 36000 ft | 529 kts | 40° |
| 2026-04-30 18:51 | 50.04401 | -10.62888 | 36000 ft | 529 kts | 40° |
| 2026-04-30 18:51 | 50.10236 | -10.55993 | 35958 ft | 530 kts | 40° |
| 2026-04-30 18:52 | 50.16141 | -10.48991 | 35996 ft | 534 kts | 40° |
| 2026-04-30 18:52 | 50.22029 | -10.41993 | 36002 ft | 530 kts | 41° |
| 2026-04-30 18:53 | 50.27894 | -10.34992 | 35996 ft | 530 kts | 41° |
| 2026-04-30 18:53 | 50.33755 | -10.27981 | 35996 ft | 530 kts | 41° |
| 2026-04-30 18:54 | 50.39609 | -10.20952 | 35954 ft | 530 kts | 41° |
| 2026-04-30 18:54 | 50.45469 | -10.13894 | 35994 ft | 529 kts | 41° |
| 2026-04-30 18:55 | 50.51267 | -10.06889 | 35995 ft | 529 kts | 41° |
| 2026-04-30 18:55 | 50.60018 | -9.96273 | 35996 ft | 529 kts | 42° |
| 2026-04-30 18:56 | 50.68697 | -9.85700 | 35766 ft | 505 kts | 42° |
| 2026-04-30 18:56 | 50.71408 | -9.82397 | 35381 ft | 481 kts | 43° |
| 2026-04-30 18:57 | 50.76463 | -9.76186 | 34144 ft | 454 kts | 44° |
| 2026-04-30 18:57 | 50.78956 | -9.73113 | 33128 ft | 453 kts | 44° |
| 2026-04-30 18:57 | 50.81420 | -9.70093 | 32574 ft | 447 kts | 44° |
| 2026-04-30 18:58 | 50.86344 | -9.64019 | 31528 ft | 449 kts | 45° |
| 2026-04-30 18:58 | 50.88809 | -9.60975 | 31030 ft | 449 kts | 45° |
| 2026-04-30 18:58 | 50.91275 | -9.57931 | 30524 ft | 448 kts | 45° |
| 2026-04-30 18:59 | 50.96219 | -9.51799 | 29514 ft | 453 kts | 45° |
| 2026-04-30 19:00 | 51.03668 | -9.42535 | 27828 ft | 457 kts | 45° |
| 2026-04-30 19:00 | 51.06178 | -9.39414 | 27296 ft | 457 kts | 45° |
| 2026-04-30 19:00 | 51.11136 | -9.33225 | 26254 ft | 448 kts | 45° |
| 2026-04-30 19:01 | 51.15960 | -9.27175 | 25245 ft | 440 kts | 45° |
| 2026-04-30 19:01 | 51.18359 | -9.24166 | 24743 ft | 436 kts | 45° |
| 2026-04-30 19:02 | 51.23068 | -9.18242 | 23755 ft | 426 kts | 46° |
| 2026-04-30 19:02 | 51.27669 | -9.12436 | 22632 ft | 416 kts | 46° |
| 2026-04-30 19:03 | 51.32187 | -9.06717 | 21468 ft | 416 kts | 46° |
| 2026-04-30 19:03 | 51.36669 | -9.01042 | 20398 ft | 406 kts | 45° |
| 2026-04-30 19:04 | 51.41050 | -8.95468 | 19390 ft | 399 kts | 44° |
| 2026-04-30 19:04 | 51.45396 | -8.89924 | 18293 ft | 403 kts | 44° |
| 2026-04-30 19:05 | 51.49775 | -8.84338 | 17206 ft | 399 kts | 44° |
| 2026-04-30 19:05 | 51.54087 | -8.78811 | 16215 ft | 394 kts | 44° |
| 2026-04-30 19:06 | 51.58336 | -8.73357 | 15268 ft | 388 kts | 44° |
| 2026-04-30 19:06 | 51.60435 | -8.70656 | 14786 ft | 385 kts | 44° |
| 2026-04-30 19:06 | 51.64587 | -8.65305 | 13918 ft | 378 kts | 44° |
| 2026-04-30 19:07 | 51.68684 | -8.60007 | 14027 ft | 378 kts | 44° |
| 2026-04-30 19:07 | 51.70745 | -8.57341 | 14034 ft | 382 kts | 44° |
| 2026-04-30 19:08 | 51.74850 | -8.52023 | 14034 ft | 380 kts | 44° |
| 2026-04-30 19:08 | 51.78975 | -8.46659 | 14038 ft | 380 kts | 44° |
| 2026-04-30 19:08 | 51.81034 | -8.43981 | 14014 ft | 381 kts | 44° |
| 2026-04-30 19:09 | 51.85156 | -8.38605 | 13586 ft | 377 kts | 44° |
| 2026-04-30 19:09 | 51.87172 | -8.35970 | 13371 ft | 376 kts | 44° |
| 2026-04-30 19:09 | 51.89224 | -8.33285 | 13155 ft | 374 kts | 44° |
| 2026-04-30 19:10 | 51.93236 | -8.28027 | 12711 ft | 372 kts | 44° |
| 2026-04-30 19:10 | 51.97250 | -8.22754 | 12310 ft | 370 kts | 44° |
| 2026-04-30 19:11 | 51.99245 | -8.20129 | 12146 ft | 368 kts | 44° |
| 2026-04-30 19:11 | 52.03213 | -8.14897 | 11890 ft | 366 kts | 44° |
| 2026-04-30 19:11 | 52.05187 | -8.12288 | 11765 ft | 365 kts | 44° |
| 2026-04-30 19:12 | 52.07157 | -8.09684 | 11642 ft | 365 kts | 44° |
| 2026-04-30 19:12 | 52.09127 | -8.07077 | 11518 ft | 364 kts | 44° |
| 2026-04-30 19:12 | 52.11088 | -8.04477 | 11396 ft | 364 kts | 44° |
| 2026-04-30 19:13 | 52.14858 | -7.99058 | 11339 ft | 360 kts | 50° |
| 2026-04-30 19:13 | 52.18354 | -7.93215 | 11341 ft | 360 kts | 50° |
| 2026-04-30 19:13 | 52.20112 | -7.90307 | 11319 ft | 360 kts | 50° |
| 2026-04-30 19:14 | 52.21876 | -7.87388 | 11323 ft | 362 kts | 50° |
| 2026-04-30 19:14 | 52.23601 | -7.84520 | 11323 ft | 361 kts | 51° |
| 2026-04-30 19:14 | 52.25367 | -7.81572 | 11322 ft | 360 kts | 51° |
| 2026-04-30 19:14 | 52.27127 | -7.78638 | 11318 ft | 361 kts | 50° |
| 2026-04-30 19:15 | 52.28882 | -7.75711 | 11318 ft | 360 kts | 50° |
| 2026-04-30 19:15 | 52.32382 | -7.69859 | 11323 ft | 361 kts | 51° |
| 2026-04-30 19:15 | 52.34132 | -7.66926 | 11319 ft | 358 kts | 50° |
| 2026-04-30 19:16 | 52.35879 | -7.63997 | 11327 ft | 360 kts | 51° |
| 2026-04-30 19:16 | 52.37606 | -7.61097 | 11328 ft | 360 kts | 51° |
| 2026-04-30 19:16 | 52.41101 | -7.55219 | 11329 ft | 360 kts | 51° |
| 2026-04-30 19:17 | 52.42847 | -7.52276 | 11326 ft | 360 kts | 51° |
| 2026-04-30 19:17 | 52.46377 | -7.46434 | 11309 ft | 362 kts | 49° |
| 2026-04-30 19:17 | 52.48172 | -7.43544 | 11305 ft | 361 kts | 50° |
| 2026-04-30 19:18 | 52.50548 | -7.39632 | 11306 ft | 361 kts | 50° |
| 2026-04-30 19:18 | 52.53539 | -7.34808 | 11310 ft | 362 kts | 50° |
| 2026-04-30 19:18 | 52.55336 | -7.31903 | 11309 ft | 362 kts | 50° |
| 2026-04-30 19:19 | 52.57132 | -7.28978 | 11304 ft | 363 kts | 50° |
| 2026-04-30 19:19 | 52.58920 | -7.26064 | 11304 ft | 362 kts | 50° |
| 2026-04-30 19:19 | 52.62482 | -7.20265 | 11312 ft | 362 kts | 50° |
| 2026-04-30 19:20 | 52.64271 | -7.17344 | 11312 ft | 362 kts | 50° |
| 2026-04-30 19:20 | 52.66063 | -7.14416 | 11313 ft | 362 kts | 50° |
| 2026-04-30 19:20 | 52.69646 | -7.08548 | 11314 ft | 362 kts | 50° |
| 2026-04-30 19:21 | 52.71435 | -7.05614 | 11314 ft | 363 kts | 50° |
| 2026-04-30 19:21 | 52.75007 | -6.99748 | 11292 ft | 360 kts | 50° |
| 2026-04-30 19:22 | 52.78545 | -6.93914 | 11292 ft | 361 kts | 50° |
| 2026-04-30 19:22 | 52.83853 | -6.85147 | 11288 ft | 360 kts | 50° |
| 2026-04-30 19:23 | 52.89102 | -6.76235 | 11292 ft | 359 kts | 51° |
| 2026-04-30 19:24 | 52.92000 | -6.71275 | 11291 ft | 361 kts | 51° |
| 2026-04-30 19:24 | 52.93748 | -6.68291 | 11298 ft | 360 kts | 51° |
| 2026-04-30 19:24 | 52.97231 | -6.62302 | 11299 ft | 360 kts | 51° |
| 2026-04-30 19:25 | 53.02461 | -6.53295 | 11281 ft | 361 kts | 51° |
| 2026-04-30 19:26 | 53.05949 | -6.47266 | 11288 ft | 362 kts | 51° |
| 2026-04-30 19:26 | 53.09434 | -6.41230 | 11290 ft | 363 kts | 50° |
| 2026-04-30 19:26 | 53.11182 | -6.38200 | 11288 ft | 363 kts | 50° |
| 2026-04-30 19:27 | 53.14672 | -6.32131 | 11290 ft | 360 kts | 50° |
| 2026-04-30 19:27 | 53.18132 | -6.26093 | 11285 ft | 362 kts | 50° |
| 2026-04-30 19:28 | 53.19877 | -6.23051 | 11288 ft | 362 kts | 50° |
| 2026-04-30 19:28 | 53.23358 | -6.16958 | 11280 ft | 361 kts | 50° |
| 2026-04-30 19:29 | 53.26814 | -6.10882 | 11266 ft | 359 kts | 53° |
| 2026-04-30 19:29 | 53.28339 | -6.07606 | 11268 ft | 357 kts | 58° |
| 2026-04-30 19:30 | 53.32935 | -5.97190 | 11319 ft | 401 kts | 57° |
| 2026-04-30 19:30 | 53.36316 | -5.89623 | 11353 ft | 407 kts | 58° |
| 2026-04-30 19:31 | 53.39683 | -5.81987 | 11373 ft | 407 kts | 58° |
| 2026-04-30 19:31 | 53.41369 | -5.78172 | 11372 ft | 407 kts | 58° |
| 2026-04-30 19:31 | 53.44742 | -5.70517 | 11378 ft | 407 kts | 58° |
| 2026-04-30 19:32 | 53.46398 | -5.66743 | 11375 ft | 407 kts | 58° |
| 2026-04-30 19:32 | 53.48078 | -5.62914 | 11378 ft | 407 kts | 58° |
| 2026-04-30 19:32 | 53.49760 | -5.59075 | 11379 ft | 407 kts | 58° |
| 2026-04-30 19:32 | 53.51436 | -5.55244 | 11374 ft | 407 kts | 58° |
| 2026-04-30 19:33 | 53.53008 | -5.51310 | 11375 ft | 401 kts | 69° |
| 2026-04-30 19:33 | 53.53688 | -5.46868 | 11390 ft | 389 kts | 90° |
| 2026-04-30 19:33 | 53.53633 | -5.42339 | 11405 ft | 385 kts | 98° |
| 2026-04-30 19:33 | 53.53417 | -5.37904 | 11420 ft | 385 kts | 98° |
| 2026-04-30 19:34 | 53.53274 | -5.33399 | 11434 ft | 387 kts | 96° |
| 2026-04-30 19:34 | 53.53206 | -5.28883 | 11445 ft | 387 kts | 96° |
| 2026-04-30 19:34 | 53.52981 | -5.19856 | 11455 ft | 386 kts | 97° |
| 2026-04-30 19:35 | 53.52848 | -5.15350 | 11438 ft | 385 kts | 97° |
| 2026-04-30 19:35 | 53.52726 | -5.10836 | 11441 ft | 385 kts | 97° |
| 2026-04-30 19:35 | 53.52584 | -5.06354 | 11440 ft | 385 kts | 97° |
| 2026-04-30 19:35 | 53.52432 | -5.01862 | 11441 ft | 385 kts | 97° |
| 2026-04-30 19:36 | 53.52289 | -4.97376 | 11438 ft | 385 kts | 97° |
| 2026-04-30 19:36 | 53.52148 | -4.92883 | 11440 ft | 385 kts | 97° |
| 2026-04-30 19:36 | 53.51852 | -4.83886 | 11445 ft | 385 kts | 97° |
| 2026-04-30 19:37 | 53.51705 | -4.79447 | 11447 ft | 386 kts | 97° |
| 2026-04-30 19:37 | 53.51556 | -4.74953 | 11446 ft | 385 kts | 97° |
| 2026-04-30 19:37 | 53.51405 | -4.70448 | 11446 ft | 385 kts | 97° |
| 2026-04-30 19:37 | 53.51251 | -4.65958 | 11446 ft | 385 kts | 97° |
| 2026-04-30 19:38 | 53.51095 | -4.61460 | 11432 ft | 386 kts | 97° |
| 2026-04-30 19:38 | 53.50938 | -4.56960 | 11433 ft | 386 kts | 97° |
| 2026-04-30 19:38 | 53.50780 | -4.52457 | 11439 ft | 385 kts | 97° |
| 2026-04-30 19:38 | 53.50620 | -4.47963 | 11435 ft | 385 kts | 97° |
| 2026-04-30 19:39 | 53.50458 | -4.43477 | 11437 ft | 385 kts | 97° |
| 2026-04-30 19:39 | 53.50295 | -4.38991 | 11439 ft | 384 kts | 97° |
| 2026-04-30 19:39 | 53.50130 | -4.34509 | 11440 ft | 385 kts | 97° |
| 2026-04-30 19:39 | 53.49963 | -4.30014 | 11440 ft | 385 kts | 97° |
| 2026-04-30 19:40 | 53.49795 | -4.25530 | 11440 ft | 384 kts | 97° |
| 2026-04-30 19:40 | 53.49625 | -4.21056 | 11442 ft | 384 kts | 98° |
| 2026-04-30 19:40 | 53.49454 | -4.16575 | 11438 ft | 384 kts | 98° |
| 2026-04-30 19:40 | 53.49280 | -4.12096 | 11429 ft | 385 kts | 97° |
| 2026-04-30 19:41 | 53.49105 | -4.07605 | 11433 ft | 386 kts | 97° |
| 2026-04-30 19:41 | 53.48930 | -4.03163 | 11436 ft | 386 kts | 97° |
| 2026-04-30 19:41 | 53.48751 | -3.98667 | 11432 ft | 386 kts | 98° |
| 2026-04-30 19:41 | 53.48281 | -3.94274 | 11439 ft | 381 kts | 110° |
| 2026-04-30 19:42 | 53.47419 | -3.90075 | 11447 ft | 380 kts | 112° |
| 2026-04-30 19:42 | 53.46534 | -3.85884 | 11450 ft | 381 kts | 112° |
| 2026-04-30 19:42 | 53.45666 | -3.81686 | 11451 ft | 380 kts | 112° |
| 2026-04-30 19:42 | 53.44811 | -3.77511 | 11301 ft | 374 kts | 112° |
| 2026-04-30 19:43 | 53.43964 | -3.73417 | 11336 ft | 372 kts | 112° |
| 2026-04-30 19:43 | 53.43109 | -3.69332 | 11339 ft | 370 kts | 112° |
| 2026-04-30 19:43 | 53.42257 | -3.65251 | 11342 ft | 370 kts | 112° |
| 2026-04-30 19:44 | 53.41143 | -3.56801 | 11348 ft | 380 kts | 97° |
| 2026-04-30 19:44 | 53.40967 | -3.52408 | 11343 ft | 378 kts | 97° |
| 2026-04-30 19:44 | 53.40785 | -3.47996 | 11354 ft | 378 kts | 97° |
| 2026-04-30 19:44 | 53.40584 | -3.43604 | 11352 ft | 378 kts | 97° |
| 2026-04-30 19:45 | 53.40380 | -3.39209 | 11357 ft | 378 kts | 97° |
| 2026-04-30 19:45 | 53.40182 | -3.34808 | 11357 ft | 378 kts | 97° |
| 2026-04-30 19:45 | 53.39987 | -3.30466 | 11354 ft | 378 kts | 97° |
| 2026-04-30 19:45 | 53.39785 | -3.26071 | 11357 ft | 378 kts | 97° |
| 2026-04-30 19:46 | 53.39580 | -3.21678 | 11359 ft | 378 kts | 97° |
| 2026-04-30 19:46 | 53.39375 | -3.17283 | 11363 ft | 378 kts | 97° |
| 2026-04-30 19:46 | 53.39618 | -3.12871 | 11361 ft | 386 kts | 76° |
| 2026-04-30 19:46 | 53.40741 | -3.08756 | 11351 ft | 391 kts | 63° |
| 2026-04-30 19:47 | 53.42160 | -3.04816 | 11372 ft | 395 kts | 61° |
| 2026-04-30 19:47 | 53.43115 | -3.02227 | 11372 ft | 394 kts | 62° |
| 2026-04-30 19:47 | 53.44966 | -2.96899 | 11380 ft | 394 kts | 64° |
| 2026-04-30 19:47 | 53.46313 | -2.92896 | 11382 ft | 394 kts | 63° |
| 2026-04-30 19:48 | 53.47687 | -2.88908 | 11386 ft | 395 kts | 63° |
| 2026-04-30 19:48 | 53.49076 | -2.84931 | 11384 ft | 394 kts | 63° |
| 2026-04-30 19:48 | 53.50436 | -2.80993 | 11396 ft | 394 kts | 63° |
| 2026-04-30 19:48 | 53.51800 | -2.76999 | 11397 ft | 394 kts | 63° |
| 2026-04-30 19:49 | 53.53166 | -2.73005 | 11398 ft | 395 kts | 63° |
| 2026-04-30 19:49 | 53.55901 | -2.65033 | 11369 ft | 377 kts | 63° |
| 2026-04-30 19:49 | 53.57139 | -2.61422 | 11375 ft | 346 kts | 64° |
| 2026-04-30 19:50 | 53.58322 | -2.57930 | 11361 ft | 341 kts | 64° |
| 2026-04-30 19:50 | 53.59489 | -2.54486 | 11385 ft | 337 kts | 64° |
| 2026-04-30 19:50 | 53.60649 | -2.51080 | 11383 ft | 334 kts | 64° |
| 2026-04-30 19:50 | 53.61813 | -2.47653 | 10958 ft | 336 kts | 64° |
| 2026-04-30 19:51 | 53.62986 | -2.44189 | 9509 ft | 343 kts | 63° |
| 2026-04-30 19:51 | 53.64167 | -2.40699 | 8011 ft | 346 kts | 63° |
| 2026-04-30 19:51 | 53.65341 | -2.37237 | 7172 ft | 336 kts | 63° |
| 2026-04-30 19:51 | 53.66473 | -2.33890 | 6302 ft | 330 kts | 64° |
| 2026-04-30 19:52 | 53.67588 | -2.30578 | 4943 ft | 321 kts | 64° |
| 2026-04-30 19:52 | 53.68667 | -2.27369 | 3939 ft | 306 kts | 64° |
| 2026-04-30 19:52 | 53.69677 | -2.24379 | 3337 ft | 280 kts | 65° |
| 2026-04-30 19:52 | 53.70590 | -2.21675 | 3156 ft | 257 kts | 66° |
| 2026-04-30 19:53 | 53.71517 | -2.18868 | 3077 ft | 290 kts | 66° |
| 2026-04-30 19:53 | 53.72529 | -2.15824 | 3014 ft | 303 kts | 65° |
| 2026-04-30 19:53 | 53.73572 | -2.12743 | 3005 ft | 297 kts | 65° |
| 2026-04-30 19:53 | 53.74276 | -2.10940 | 3000 ft | 311 kts | 55° |
| 2026-04-30 19:54 | 53.75918 | -2.08600 | 2999 ft | 317 kts | 39° |
| 2026-04-30 19:54 | 53.77773 | -2.06569 | 2989 ft | 313 kts | 36° |
| 2026-04-30 19:54 | 53.79653 | -2.04587 | 2980 ft | 316 kts | 36° |
| 2026-04-30 19:54 | 53.81395 | -2.02708 | 2969 ft | 278 kts | 38° |
| 2026-04-30 19:55 | 53.82958 | -2.00978 | 3001 ft | 265 kts | 38° |
| 2026-04-30 19:55 | 53.84460 | -1.99315 | 3011 ft | 257 kts | 38° |
| 2026-04-30 19:55 | 53.85965 | -1.97661 | 3006 ft | 259 kts | 38° |
| 2026-04-30 19:55 | 53.87479 | -1.96004 | 3016 ft | 258 kts | 38° |
| 2026-04-30 19:56 | 53.88984 | -1.94353 | 3010 ft | 253 kts | 38° |
| 2026-04-30 19:56 | 53.90470 | -1.92721 | 3017 ft | 257 kts | 38° |
| 2026-04-30 19:56 | 53.91913 | -1.91138 | 2991 ft | 234 kts | 38° |
| 2026-04-30 19:56 | 53.93203 | -1.89728 | 2991 ft | 210 kts | 40° |
| 2026-04-30 19:57 | 53.94335 | -1.88492 | 2985 ft | 176 kts | 40° |
| 2026-04-30 19:57 | 53.95353 | -1.87352 | 2994 ft | 176 kts | 41° |
| 2026-04-30 19:57 | 53.96346 | -1.86213 | 2990 ft | 171 kts | 48° |
| 2026-04-30 19:57 | 53.96926 | -1.84658 | 3003 ft | 141 kts | 79° |
| 2026-04-30 19:58 | 53.96975 | -1.83078 | 2991 ft | 134 kts | 109° |
| 2026-04-30 19:58 | 53.96596 | -1.81693 | 3003 ft | 130 kts | 131° |
| 2026-04-30 19:58 | 53.95972 | -1.80610 | 2997 ft | 128 kts | 140° |
| 2026-04-30 19:58 | 53.95310 | -1.79586 | 2999 ft | 129 kts | 140° |
| 2026-04-30 19:59 | 53.94649 | -1.78563 | 3003 ft | 129 kts | 140° |
| 2026-04-30 19:59 | 53.93985 | -1.77536 | 2819 ft | 125 kts | 139° |
| 2026-04-30 19:59 | 53.92687 | -1.75520 | 2429 ft | 126 kts | 137° |
| 2026-04-30 20:00 | 53.92041 | -1.74515 | 2232 ft | 125 kts | 137° |
| 2026-04-30 20:00 | 53.91405 | -1.73532 | 2045 ft | 125 kts | 137° |
| 2026-04-30 20:00 | 53.90762 | -1.72534 | 1849 ft | 126 kts | 136° |
| 2026-04-30 20:00 | 53.90117 | -1.71528 | 1641 ft | 124 kts | 137° |
| 2026-04-30 20:01 | 53.88770 | -1.69448 | 1229 ft | 137 kts | 135° |
| 2026-04-30 20:01 | 53.88083 | -1.68346 | 978 ft | 133 kts | 134° |
| 2026-04-30 20:01 | 53.87381 | -1.67269 | 777 ft | 140 kts | 137° |
| 2026-04-30 20:02 | 53.86214 | -1.65471 | 663 ft | 71 kts | 137° |
| 2026-04-30 20:02 | 53.85993 | -1.65134 | 657 ft | 21 kts | 138° |
| 2026-04-30 20:03 | 53.85903 | -1.64925 | 656 ft | 6 kts | 134° |
| 2026-04-30 20:03 | 53.85880 | -1.64932 | 652 ft | 2 kts | 229° |
| 2026-04-30 20:03 | 53.85885 | -1.64970 | 652 ft | 6 kts | 302° |
| 2026-04-30 20:03 | 53.85936 | -1.65053 | 655 ft | 14 kts | 317° |
| 2026-04-30 20:04 | 53.86023 | -1.65187 | 657 ft | 21 kts | 317° |
| 2026-04-30 20:04 | 53.86129 | -1.65349 | 663 ft | 17 kts | 318° |
| 2026-04-30 20:04 | 53.86209 | -1.65462 | 663 ft | 11 kts | 335° |
| 2026-04-30 20:05 | 53.86292 | -1.65461 | 665 ft | 5 kts | 4° |
| 2026-04-30 20:05 | 53.86342 | -1.65456 | 666 ft | 10 kts | 3° |
| 2026-04-30 20:05 | 53.86528 | -1.65438 | 665 ft | 13 kts | 3° |
| 2026-04-30 20:06 | 53.86605 | -1.65432 | 663 ft | 9 kts | 2° |
| 2026-04-30 20:06 | 53.86661 | -1.65426 | 662 ft | 7 kts | 4° |
| 2026-04-30 20:06 | 53.86710 | -1.65423 | 661 ft | 8 kts | 352° |
| 2026-04-30 20:06 | 53.86736 | -1.65499 | 664 ft | 10 kts | 272° |
| 2026-04-30 20:07 | 53.86740 | -1.65615 | 667 ft | 9 kts | 273° |
| 2026-04-30 20:07 | 53.86746 | -1.65716 | 669 ft | 7 kts | 298° |
| 2026-04-30 20:07 | 53.86817 | -1.65804 | 669 ft | 4 kts | 296° |
| 2026-04-30 20:08 | 53.86833 | -1.65829 | 668 ft | 5 kts | 331° |
| 2026-04-30 20:08 | 53.86856 | -1.65858 | 667 ft | 6 kts | 273° |
| 2026-04-30 20:08 | 53.86810 | -1.65842 | 665 ft | 5 kts | 105° |
| 2026-04-30 20:08 | 53.86811 | -1.65788 | 667 ft | 4 kts | 70° |
| 2026-04-30 20:09 | 53.86839 | -1.65764 | 668 ft | 4 kts | 7° |
| 2026-04-30 20:09 | 53.86862 | -1.65762 | 668 ft | 2 kts | 2° |
| 2026-04-30 20:09 | 53.86869 | -1.65762 | 668 ft | 0 kts | 2° |